sensor_id;sensor_type;location;lat;lon;timestamp;P1;durP1;ratioP1;P2;durP2;ratioP2
42332;SDS011;27984;51.476;5.702;2023-11-21T00:02:07;32.50;;;16.00;;
42332;SDS011;27984;51.476;5.702;2023-11-21T00:04:33;27.95;;;16.13;;
42332;SDS011;27984;51.476;5.702;2023-11-21T00:06:59;33.17;;;16.83;;
42332;SDS011;27984;51.476;5.702;2023-11-21T00:09:25;31.55;;;16.50;;
42332;SDS011;27984;51.476;5.702;2023-11-21T00:11:52;31.75;;;17.75;;
42332;SDS011;27984;51.476;5.702;2023-11-21T00:14:18;39.13;;;17.65;;
42332;SDS011;27984;51.476;5.702;2023-11-21T00:16:44;32.05;;;16.95;;
42332;SDS011;27984;51.476;5.702;2023-11-21T00:19:10;30.85;;;17.70;;
42332;SDS011;27984;51.476;5.702;2023-11-21T00:21:37;27.23;;;17.65;;
42332;SDS011;27984;51.476;5.702;2023-11-21T00:24:03;32.47;;;16.77;;
42332;SDS011;27984;51.476;5.702;2023-11-21T00:26:29;34.38;;;18.23;;
42332;SDS011;27984;51.476;5.702;2023-11-21T00:28:57;36.90;;;18.30;;
42332;SDS011;27984;51.476;5.702;2023-11-21T00:31:23;30.13;;;17.33;;
42332;SDS011;27984;51.476;5.702;2023-11-21T00:33:49;33.47;;;18.25;;
42332;SDS011;27984;51.476;5.702;2023-11-21T00:36:15;36.53;;;19.85;;
42332;SDS011;27984;51.476;5.702;2023-11-21T00:38:41;27.45;;;17.00;;
42332;SDS011;27984;51.476;5.702;2023-11-21T00:41:07;28.00;;;17.25;;
42332;SDS011;27984;51.476;5.702;2023-11-21T00:43:33;29.25;;;16.98;;
42332;SDS011;27984;51.476;5.702;2023-11-21T00:45:59;29.13;;;17.75;;
42332;SDS011;27984;51.476;5.702;2023-11-21T00:48:25;28.15;;;17.23;;
42332;SDS011;27984;51.476;5.702;2023-11-21T00:50:51;29.20;;;17.73;;
42332;SDS011;27984;51.476;5.702;2023-11-21T00:53:17;26.23;;;16.20;;
42332;SDS011;27984;51.476;5.702;2023-11-21T00:55:43;28.83;;;16.95;;
42332;SDS011;27984;51.476;5.702;2023-11-21T00:58:09;31.92;;;17.08;;
42332;SDS011;27984;51.476;5.702;2023-11-21T01:00:35;28.05;;;17.40;;
42332;SDS011;27984;51.476;5.702;2023-11-21T01:03:04;25.30;;;16.10;;
42332;SDS011;27984;51.476;5.702;2023-11-21T01:05:30;29.95;;;17.13;;
42332;SDS011;27984;51.476;5.702;2023-11-21T01:07:56;27.63;;;16.73;;
42332;SDS011;27984;51.476;5.702;2023-11-21T01:10:22;33.08;;;17.75;;
42332;SDS011;27984;51.476;5.702;2023-11-21T01:12:48;23.92;;;15.43;;
42332;SDS011;27984;51.476;5.702;2023-11-21T01:15:14;28.52;;;17.58;;
42332;SDS011;27984;51.476;5.702;2023-11-21T01:17:40;30.13;;;17.73;;
42332;SDS011;27984;51.476;5.702;2023-11-21T01:20:06;30.00;;;17.23;;
42332;SDS011;27984;51.476;5.702;2023-11-21T01:22:37;29.98;;;17.48;;
42332;SDS011;27984;51.476;5.702;2023-11-21T01:25:03;30.52;;;18.17;;
42332;SDS011;27984;51.476;5.702;2023-11-21T01:27:32;32.10;;;18.27;;
42332;SDS011;27984;51.476;5.702;2023-11-21T01:29:58;31.67;;;18.42;;
42332;SDS011;27984;51.476;5.702;2023-11-21T01:32:24;33.40;;;19.75;;
42332;SDS011;27984;51.476;5.702;2023-11-21T01:34:50;30.13;;;18.23;;
42332;SDS011;27984;51.476;5.702;2023-11-21T01:37:16;33.88;;;18.77;;
42332;SDS011;27984;51.476;5.702;2023-11-21T01:39:42;31.98;;;17.83;;
42332;SDS011;27984;51.476;5.702;2023-11-21T01:42:09;29.52;;;18.70;;
42332;SDS011;27984;51.476;5.702;2023-11-21T01:44:36;36.22;;;18.77;;
42332;SDS011;27984;51.476;5.702;2023-11-21T01:47:02;35.42;;;19.38;;
42332;SDS011;27984;51.476;5.702;2023-11-21T01:49:30;33.45;;;19.25;;
42332;SDS011;27984;51.476;5.702;2023-11-21T01:51:57;30.05;;;17.63;;
42332;SDS011;27984;51.476;5.702;2023-11-21T01:54:23;35.38;;;18.42;;
42332;SDS011;27984;51.476;5.702;2023-11-21T01:56:49;30.13;;;18.27;;
42332;SDS011;27984;51.476;5.702;2023-11-21T01:59:16;29.35;;;17.48;;
42332;SDS011;27984;51.476;5.702;2023-11-21T02:01:44;29.45;;;18.35;;
42332;SDS011;27984;51.476;5.702;2023-11-21T02:04:11;34.25;;;17.42;;
42332;SDS011;27984;51.476;5.702;2023-11-21T02:06:37;29.58;;;17.65;;
42332;SDS011;27984;51.476;5.702;2023-11-21T02:09:04;27.83;;;18.48;;
42332;SDS011;27984;51.476;5.702;2023-11-21T02:11:30;29.58;;;17.67;;
42332;SDS011;27984;51.476;5.702;2023-11-21T02:13:58;30.13;;;18.55;;
42332;SDS011;27984;51.476;5.702;2023-11-21T02:16:25;32.85;;;18.02;;
42332;SDS011;27984;51.476;5.702;2023-11-21T02:18:52;31.02;;;18.25;;
42332;SDS011;27984;51.476;5.702;2023-11-21T02:21:18;33.28;;;18.40;;
42332;SDS011;27984;51.476;5.702;2023-11-21T02:23:44;30.80;;;18.52;;
42332;SDS011;27984;51.476;5.702;2023-11-21T02:26:11;30.83;;;18.58;;
42332;SDS011;27984;51.476;5.702;2023-11-21T02:28:38;34.78;;;19.60;;
42332;SDS011;27984;51.476;5.702;2023-11-21T02:31:04;30.25;;;18.50;;
42332;SDS011;27984;51.476;5.702;2023-11-21T02:33:30;31.15;;;18.80;;
42332;SDS011;27984;51.476;5.702;2023-11-21T02:35:59;35.22;;;19.63;;
42332;SDS011;27984;51.476;5.702;2023-11-21T02:38:25;36.50;;;20.33;;
42332;SDS011;27984;51.476;5.702;2023-11-21T02:40:51;38.90;;;21.17;;
42332;SDS011;27984;51.476;5.702;2023-11-21T02:43:17;39.55;;;20.10;;
42332;SDS011;27984;51.476;5.702;2023-11-21T02:45:43;46.22;;;20.77;;
42332;SDS011;27984;51.476;5.702;2023-11-21T02:48:09;75.20;;;22.27;;
42332;SDS011;27984;51.476;5.702;2023-11-21T02:50:35;52.35;;;22.95;;
42332;SDS011;27984;51.476;5.702;2023-11-21T02:53:02;91.28;;;24.88;;
42332;SDS011;27984;51.476;5.702;2023-11-21T02:55:28;84.25;;;24.83;;
42332;SDS011;27984;51.476;5.702;2023-11-21T02:57:54;101.30;;;24.13;;
42332;SDS011;27984;51.476;5.702;2023-11-21T03:00:23;78.72;;;23.13;;
42332;SDS011;27984;51.476;5.702;2023-11-21T03:02:51;103.22;;;22.73;;
42332;SDS011;27984;51.476;5.702;2023-11-21T03:05:18;75.93;;;23.25;;
42332;SDS011;27984;51.476;5.702;2023-11-21T03:07:44;90.32;;;22.80;;
42332;SDS011;27984;51.476;5.702;2023-11-21T03:10:10;85.57;;;22.38;;
42332;SDS011;27984;51.476;5.702;2023-11-21T03:12:39;56.33;;;22.20;;
42332;SDS011;27984;51.476;5.702;2023-11-21T03:15:06;84.53;;;23.55;;
42332;SDS011;27984;51.476;5.702;2023-11-21T03:17:32;79.78;;;22.15;;
42332;SDS011;27984;51.476;5.702;2023-11-21T03:20:01;78.57;;;22.73;;
42332;SDS011;27984;51.476;5.702;2023-11-21T03:22:28;86.43;;;23.60;;
42332;SDS011;27984;51.476;5.702;2023-11-21T03:24:54;124.32;;;22.85;;
42332;SDS011;27984;51.476;5.702;2023-11-21T03:27:20;88.50;;;23.65;;
42332;SDS011;27984;51.476;5.702;2023-11-21T03:29:47;90.95;;;23.85;;
42332;SDS011;27984;51.476;5.702;2023-11-21T03:32:14;73.28;;;24.13;;
42332;SDS011;27984;51.476;5.702;2023-11-21T03:35:01;86.63;;;24.48;;
42332;SDS011;27984;51.476;5.702;2023-11-21T03:37:26;60.35;;;23.90;;
42332;SDS011;27984;51.476;5.702;2023-11-21T03:39:52;84.45;;;23.42;;
42332;SDS011;27984;51.476;5.702;2023-11-21T03:42:18;102.78;;;23.10;;
42332;SDS011;27984;51.476;5.702;2023-11-21T03:44:44;143.30;;;22.83;;
42332;SDS011;27984;51.476;5.702;2023-11-21T03:47:10;76.35;;;22.08;;
42332;SDS011;27984;51.476;5.702;2023-11-21T03:49:37;78.47;;;24.25;;
42332;SDS011;27984;51.476;5.702;2023-11-21T03:52:03;102.22;;;23.10;;
42332;SDS011;27984;51.476;5.702;2023-11-21T03:54:29;81.75;;;23.77;;
42332;SDS011;27984;51.476;5.702;2023-11-21T03:56:55;83.10;;;22.38;;
42332;SDS011;27984;51.476;5.702;2023-11-21T03:59:21;66.00;;;23.08;;
42332;SDS011;27984;51.476;5.702;2023-11-21T04:01:49;140.02;;;24.15;;
42332;SDS011;27984;51.476;5.702;2023-11-21T04:04:15;76.95;;;23.30;;
42332;SDS011;27984;51.476;5.702;2023-11-21T04:06:41;75.72;;;22.45;;
42332;SDS011;27984;51.476;5.702;2023-11-21T04:09:07;107.25;;;23.08;;
42332;SDS011;27984;51.476;5.702;2023-11-21T04:11:33;87.53;;;23.52;;
42332;SDS011;27984;51.476;5.702;2023-11-21T04:13:59;93.03;;;23.05;;
42332;SDS011;27984;51.476;5.702;2023-11-21T04:16:25;81.82;;;24.15;;
42332;SDS011;27984;51.476;5.702;2023-11-21T04:18:51;71.15;;;23.02;;
42332;SDS011;27984;51.476;5.702;2023-11-21T04:21:17;111.95;;;23.67;;
42332;SDS011;27984;51.476;5.702;2023-11-21T04:23:43;108.93;;;22.70;;
42332;SDS011;27984;51.476;5.702;2023-11-21T04:26:09;100.80;;;24.42;;
42332;SDS011;27984;51.476;5.702;2023-11-21T04:28:35;84.72;;;23.42;;
42332;SDS011;27984;51.476;5.702;2023-11-21T04:31:00;89.25;;;23.67;;
42332;SDS011;27984;51.476;5.702;2023-11-21T04:33:27;104.07;;;25.20;;
42332;SDS011;27984;51.476;5.702;2023-11-21T04:35:54;80.63;;;24.70;;
42332;SDS011;27984;51.476;5.702;2023-11-21T04:38:19;88.45;;;25.27;;
42332;SDS011;27984;51.476;5.702;2023-11-21T04:40:45;75.85;;;24.65;;
42332;SDS011;27984;51.476;5.702;2023-11-21T04:43:11;108.45;;;25.23;;
42332;SDS011;27984;51.476;5.702;2023-11-21T04:45:37;82.20;;;23.85;;
42332;SDS011;27984;51.476;5.702;2023-11-21T04:48:05;125.20;;;24.33;;
42332;SDS011;27984;51.476;5.702;2023-11-21T04:50:32;95.80;;;23.27;;
42332;SDS011;27984;51.476;5.702;2023-11-21T04:52:58;85.93;;;22.48;;
42332;SDS011;27984;51.476;5.702;2023-11-21T04:55:24;80.80;;;24.27;;
42332;SDS011;27984;51.476;5.702;2023-11-21T04:57:53;120.18;;;24.20;;
42332;SDS011;27984;51.476;5.702;2023-11-21T05:00:19;93.32;;;24.30;;
42332;SDS011;27984;51.476;5.702;2023-11-21T05:02:46;69.45;;;23.17;;
42332;SDS011;27984;51.476;5.702;2023-11-21T05:05:12;130.38;;;24.02;;
42332;SDS011;27984;51.476;5.702;2023-11-21T05:07:39;84.03;;;23.65;;
42332;SDS011;27984;51.476;5.702;2023-11-21T05:10:06;99.57;;;24.02;;
42332;SDS011;27984;51.476;5.702;2023-11-21T05:12:35;112.45;;;23.67;;
42332;SDS011;27984;51.476;5.702;2023-11-21T05:15:03;56.13;;;22.60;;
42332;SDS011;27984;51.476;5.702;2023-11-21T05:17:32;71.70;;;22.35;;
42332;SDS011;27984;51.476;5.702;2023-11-21T05:20:00;84.95;;;22.90;;
42332;SDS011;27984;51.476;5.702;2023-11-21T05:22:28;52.05;;;21.67;;
42332;SDS011;27984;51.476;5.702;2023-11-21T05:24:54;44.17;;;22.70;;
42332;SDS011;27984;51.476;5.702;2023-11-21T05:27:20;56.85;;;24.63;;
42332;SDS011;27984;51.476;5.702;2023-11-21T05:29:46;57.90;;;22.55;;
42332;SDS011;27984;51.476;5.702;2023-11-21T05:32:12;61.53;;;22.85;;
42332;SDS011;27984;51.476;5.702;2023-11-21T05:34:38;60.28;;;21.88;;
42332;SDS011;27984;51.476;5.702;2023-11-21T05:37:04;50.47;;;22.85;;
42332;SDS011;27984;51.476;5.702;2023-11-21T05:39:30;49.35;;;22.05;;
42332;SDS011;27984;51.476;5.702;2023-11-21T05:41:57;77.38;;;22.77;;
42332;SDS011;27984;51.476;5.702;2023-11-21T05:44:25;51.70;;;23.38;;
42332;SDS011;27984;51.476;5.702;2023-11-21T05:46:50;58.38;;;22.67;;
42332;SDS011;27984;51.476;5.702;2023-11-21T05:49:17;74.80;;;22.65;;
42332;SDS011;27984;51.476;5.702;2023-11-21T05:51:46;41.17;;;23.27;;
42332;SDS011;27984;51.476;5.702;2023-11-21T05:54:12;45.00;;;22.10;;
42332;SDS011;27984;51.476;5.702;2023-11-21T05:56:38;43.30;;;21.60;;
42332;SDS011;27984;51.476;5.702;2023-11-21T05:59:04;47.67;;;22.95;;
42332;SDS011;27984;51.476;5.702;2023-11-21T06:01:31;46.08;;;23.13;;
42332;SDS011;27984;51.476;5.702;2023-11-21T06:03:57;46.17;;;22.98;;
42332;SDS011;27984;51.476;5.702;2023-11-21T06:06:24;37.45;;;21.77;;
42332;SDS011;27984;51.476;5.702;2023-11-21T06:08:50;38.78;;;20.35;;
42332;SDS011;27984;51.476;5.702;2023-11-21T06:11:16;38.90;;;21.48;;
42332;SDS011;27984;51.476;5.702;2023-11-21T06:13:42;38.92;;;21.00;;
42332;SDS011;27984;51.476;5.702;2023-11-21T06:16:08;38.67;;;22.25;;
42332;SDS011;27984;51.476;5.702;2023-11-21T06:18:34;34.83;;;22.27;;
42332;SDS011;27984;51.476;5.702;2023-11-21T06:21:00;35.15;;;21.85;;
42332;SDS011;27984;51.476;5.702;2023-11-21T06:23:26;36.08;;;22.38;;
42332;SDS011;27984;51.476;5.702;2023-11-21T06:25:52;32.08;;;22.33;;
42332;SDS011;27984;51.476;5.702;2023-11-21T06:28:18;35.60;;;22.63;;
42332;SDS011;27984;51.476;5.702;2023-11-21T06:30:44;36.25;;;22.67;;
42332;SDS011;27984;51.476;5.702;2023-11-21T06:33:10;36.53;;;23.25;;
42332;SDS011;27984;51.476;5.702;2023-11-21T06:35:36;33.08;;;22.90;;
42332;SDS011;27984;51.476;5.702;2023-11-21T06:38:02;38.63;;;21.58;;
42332;SDS011;27984;51.476;5.702;2023-11-21T06:40:28;35.05;;;21.83;;
42332;SDS011;27984;51.476;5.702;2023-11-21T06:42:54;33.88;;;21.83;;
42332;SDS011;27984;51.476;5.702;2023-11-21T06:45:20;38.50;;;22.77;;
42332;SDS011;27984;51.476;5.702;2023-11-21T06:47:46;38.30;;;22.88;;
42332;SDS011;27984;51.476;5.702;2023-11-21T06:50:13;43.28;;;22.60;;
42332;SDS011;27984;51.476;5.702;2023-11-21T06:52:39;42.83;;;22.80;;
42332;SDS011;27984;51.476;5.702;2023-11-21T06:55:05;39.28;;;22.83;;
42332;SDS011;27984;51.476;5.702;2023-11-21T06:57:33;42.65;;;22.98;;
42332;SDS011;27984;51.476;5.702;2023-11-21T06:59:59;39.78;;;22.48;;
42332;SDS011;27984;51.476;5.702;2023-11-21T07:02:25;42.08;;;23.30;;
42332;SDS011;27984;51.476;5.702;2023-11-21T07:04:51;40.17;;;22.85;;
42332;SDS011;27984;51.476;5.702;2023-11-21T07:07:18;46.15;;;23.05;;
42332;SDS011;27984;51.476;5.702;2023-11-21T07:09:44;46.45;;;23.20;;
42332;SDS011;27984;51.476;5.702;2023-11-21T07:12:10;45.22;;;22.98;;
42332;SDS011;27984;51.476;5.702;2023-11-21T07:14:36;51.72;;;23.92;;
42332;SDS011;27984;51.476;5.702;2023-11-21T07:17:04;43.85;;;23.45;;
42332;SDS011;27984;51.476;5.702;2023-11-21T07:19:30;49.13;;;25.23;;
42332;SDS011;27984;51.476;5.702;2023-11-21T07:21:56;45.42;;;24.38;;
42332;SDS011;27984;51.476;5.702;2023-11-21T07:24:22;52.15;;;25.98;;
42332;SDS011;27984;51.476;5.702;2023-11-21T07:26:48;52.30;;;27.27;;
42332;SDS011;27984;51.476;5.702;2023-11-21T07:29:14;56.03;;;28.00;;
42332;SDS011;27984;51.476;5.702;2023-11-21T07:31:40;58.78;;;28.80;;
42332;SDS011;27984;51.476;5.702;2023-11-21T07:34:06;61.13;;;30.20;;
42332;SDS011;27984;51.476;5.702;2023-11-21T07:36:33;58.53;;;28.92;;
42332;SDS011;27984;51.476;5.702;2023-11-21T07:38:59;56.88;;;28.95;;
42332;SDS011;27984;51.476;5.702;2023-11-21T07:41:27;58.95;;;27.30;;
42332;SDS011;27984;51.476;5.702;2023-11-21T07:43:54;59.83;;;27.30;;
42332;SDS011;27984;51.476;5.702;2023-11-21T07:46:20;59.67;;;26.83;;
42332;SDS011;27984;51.476;5.702;2023-11-21T07:48:47;60.03;;;28.20;;
42332;SDS011;27984;51.476;5.702;2023-11-21T07:51:13;59.13;;;30.13;;
42332;SDS011;27984;51.476;5.702;2023-11-21T07:53:39;61.22;;;28.45;;
42332;SDS011;27984;51.476;5.702;2023-11-21T07:56:06;65.35;;;29.48;;
42332;SDS011;27984;51.476;5.702;2023-11-21T07:58:32;66.00;;;27.75;;
42332;SDS011;27984;51.476;5.702;2023-11-21T08:00:59;67.13;;;27.75;;
42332;SDS011;27984;51.476;5.702;2023-11-21T08:03:25;65.75;;;28.73;;
42332;SDS011;27984;51.476;5.702;2023-11-21T08:06:00;63.95;;;28.45;;
42332;SDS011;27984;51.476;5.702;2023-11-21T08:08:28;69.90;;;28.98;;
42332;SDS011;27984;51.476;5.702;2023-11-21T08:10:54;58.88;;;27.77;;
42332;SDS011;27984;51.476;5.702;2023-11-21T08:13:23;62.50;;;27.73;;
42332;SDS011;27984;51.476;5.702;2023-11-21T08:15:49;61.30;;;28.38;;
42332;SDS011;27984;51.476;5.702;2023-11-21T08:18:16;67.72;;;30.02;;
42332;SDS011;27984;51.476;5.702;2023-11-21T08:20:42;63.97;;;27.85;;
42332;SDS011;27984;51.476;5.702;2023-11-21T08:23:08;60.60;;;27.58;;
42332;SDS011;27984;51.476;5.702;2023-11-21T08:25:34;57.72;;;27.42;;
42332;SDS011;27984;51.476;5.702;2023-11-21T08:28:00;56.20;;;26.63;;
42332;SDS011;27984;51.476;5.702;2023-11-21T08:30:26;57.45;;;26.73;;
42332;SDS011;27984;51.476;5.702;2023-11-21T08:32:55;55.22;;;26.55;;
42332;SDS011;27984;51.476;5.702;2023-11-21T08:35:23;52.80;;;26.63;;
42332;SDS011;27984;51.476;5.702;2023-11-21T08:37:51;53.60;;;26.45;;
42332;SDS011;27984;51.476;5.702;2023-11-21T08:40:18;52.88;;;25.85;;
42332;SDS011;27984;51.476;5.702;2023-11-21T08:42:44;53.88;;;25.83;;
42332;SDS011;27984;51.476;5.702;2023-11-21T08:45:10;48.13;;;25.55;;
42332;SDS011;27984;51.476;5.702;2023-11-21T08:47:38;52.08;;;26.23;;
42332;SDS011;27984;51.476;5.702;2023-11-21T08:50:04;49.05;;;25.17;;
42332;SDS011;27984;51.476;5.702;2023-11-21T08:52:32;44.40;;;24.98;;
42332;SDS011;27984;51.476;5.702;2023-11-21T08:54:58;46.80;;;25.38;;
42332;SDS011;27984;51.476;5.702;2023-11-21T08:57:27;46.75;;;25.30;;
42332;SDS011;27984;51.476;5.702;2023-11-21T08:59:54;47.95;;;24.77;;
42332;SDS011;27984;51.476;5.702;2023-11-21T09:02:25;47.22;;;24.45;;
42332;SDS011;27984;51.476;5.702;2023-11-21T09:04:51;53.17;;;25.63;;
42332;SDS011;27984;51.476;5.702;2023-11-21T09:07:20;45.92;;;25.90;;
42332;SDS011;27984;51.476;5.702;2023-11-21T09:09:47;47.92;;;25.50;;
42332;SDS011;27984;51.476;5.702;2023-11-21T09:12:13;47.63;;;25.17;;
42332;SDS011;27984;51.476;5.702;2023-11-21T09:14:39;45.13;;;25.27;;
42332;SDS011;27984;51.476;5.702;2023-11-21T09:17:05;48.78;;;24.17;;
42332;SDS011;27984;51.476;5.702;2023-11-21T09:19:37;43.03;;;24.80;;
42332;SDS011;27984;51.476;5.702;2023-11-21T09:22:03;45.95;;;24.38;;
42332;SDS011;27984;51.476;5.702;2023-11-21T09:24:30;46.00;;;24.52;;
42332;SDS011;27984;51.476;5.702;2023-11-21T09:26:56;45.25;;;23.85;;
42332;SDS011;27984;51.476;5.702;2023-11-21T09:29:22;45.28;;;24.70;;
42332;SDS011;27984;51.476;5.702;2023-11-21T09:31:48;41.55;;;23.38;;
42332;SDS011;27984;51.476;5.702;2023-11-21T09:34:16;42.90;;;23.42;;
42332;SDS011;27984;51.476;5.702;2023-11-21T09:36:44;41.72;;;24.27;;
42332;SDS011;27984;51.476;5.702;2023-11-21T09:39:10;44.72;;;24.85;;
42332;SDS011;27984;51.476;5.702;2023-11-21T09:44:09;41.95;;;23.98;;
42332;SDS011;27984;51.476;5.702;2023-11-21T09:46:38;46.22;;;23.88;;
42332;SDS011;27984;51.476;5.702;2023-11-21T09:49:06;41.03;;;23.52;;
42332;SDS011;27984;51.476;5.702;2023-11-21T09:51:37;40.90;;;23.15;;
42332;SDS011;27984;51.476;5.702;2023-11-21T09:54:05;40.30;;;23.55;;
42332;SDS011;27984;51.476;5.702;2023-11-21T09:56:32;40.15;;;22.58;;
42332;SDS011;27984;51.476;5.702;2023-11-21T09:58:58;39.88;;;22.20;;
42332;SDS011;27984;51.476;5.702;2023-11-21T10:01:29;42.95;;;23.27;;
42332;SDS011;27984;51.476;5.702;2023-11-21T10:03:56;40.78;;;23.15;;
42332;SDS011;27984;51.476;5.702;2023-11-21T10:06:22;41.08;;;23.38;;
42332;SDS011;27984;51.476;5.702;2023-11-21T10:08:50;38.63;;;21.95;;
42332;SDS011;27984;51.476;5.702;2023-11-21T10:11:17;46.38;;;22.25;;
42332;SDS011;27984;51.476;5.702;2023-11-21T10:13:44;45.58;;;23.33;;
42332;SDS011;27984;51.476;5.702;2023-11-21T10:16:11;38.97;;;22.95;;
42332;SDS011;27984;51.476;5.702;2023-11-21T10:18:41;44.95;;;24.23;;
42332;SDS011;27984;51.476;5.702;2023-11-21T10:21:09;44.38;;;24.58;;
42332;SDS011;27984;51.476;5.702;2023-11-21T10:23:36;47.63;;;25.25;;
42332;SDS011;27984;51.476;5.702;2023-11-21T10:26:02;50.47;;;25.95;;
42332;SDS011;27984;51.476;5.702;2023-11-21T10:28:29;47.10;;;25.60;;
42332;SDS011;27984;51.476;5.702;2023-11-21T10:30:55;61.25;;;27.70;;
42332;SDS011;27984;51.476;5.702;2023-11-21T10:33:27;49.13;;;26.40;;
42332;SDS011;27984;51.476;5.702;2023-11-21T10:35:54;58.25;;;27.52;;
42332;SDS011;27984;51.476;5.702;2023-11-21T10:38:20;52.10;;;26.63;;
42332;SDS011;27984;51.476;5.702;2023-11-21T10:40:48;56.35;;;28.08;;
42332;SDS011;27984;51.476;5.702;2023-11-21T10:43:14;53.90;;;27.30;;
42332;SDS011;27984;51.476;5.702;2023-11-21T10:45:41;60.20;;;26.63;;
42332;SDS011;27984;51.476;5.702;2023-11-21T10:48:13;53.53;;;27.20;;
42332;SDS011;27984;51.476;5.702;2023-11-21T10:50:46;55.53;;;26.55;;
42332;SDS011;27984;51.476;5.702;2023-11-21T10:53:12;55.15;;;26.30;;
42332;SDS011;27984;51.476;5.702;2023-11-21T10:55:38;58.13;;;28.90;;
42332;SDS011;27984;51.476;5.702;2023-11-21T10:58:04;63.80;;;28.30;;
42332;SDS011;27984;51.476;5.702;2023-11-21T11:00:31;56.90;;;28.17;;
42332;SDS011;27984;51.476;5.702;2023-11-21T11:02:58;55.63;;;28.92;;
42332;SDS011;27984;51.476;5.702;2023-11-21T11:05:28;63.25;;;29.08;;
42332;SDS011;27984;51.476;5.702;2023-11-21T11:08:08;60.97;;;28.75;;
42332;SDS011;27984;51.476;5.702;2023-11-21T11:10:34;56.67;;;28.75;;
42332;SDS011;27984;51.476;5.702;2023-11-21T11:13:01;62.03;;;28.98;;
42332;SDS011;27984;51.476;5.702;2023-11-21T11:15:27;59.92;;;28.77;;
42332;SDS011;27984;51.476;5.702;2023-11-21T11:17:54;66.20;;;29.67;;
42332;SDS011;27984;51.476;5.702;2023-11-21T11:20:25;63.17;;;29.52;;
42332;SDS011;27984;51.476;5.702;2023-11-21T11:22:59;61.75;;;30.30;;
42332;SDS011;27984;51.476;5.702;2023-11-21T11:28:13;69.72;;;29.13;;
42332;SDS011;27984;51.476;5.702;2023-11-21T11:30:52;80.90;;;30.17;;
42332;SDS011;27984;51.476;5.702;2023-11-21T11:33:33;67.82;;;29.48;;
42332;SDS011;27984;51.476;5.702;2023-11-21T11:36:03;67.85;;;28.70;;
42332;SDS011;27984;51.476;5.702;2023-11-21T11:38:33;62.10;;;28.83;;
42332;SDS011;27984;51.476;5.702;2023-11-21T11:41:01;59.88;;;27.73;;
42332;SDS011;27984;51.476;5.702;2023-11-21T11:43:28;63.42;;;29.17;;
42332;SDS011;27984;51.476;5.702;2023-11-21T11:45:56;63.47;;;28.48;;
42332;SDS011;27984;51.476;5.702;2023-11-21T11:48:24;66.97;;;28.80;;
42332;SDS011;27984;51.476;5.702;2023-11-21T11:53:41;58.83;;;28.20;;
42332;SDS011;27984;51.476;5.702;2023-11-21T11:56:20;57.60;;;28.67;;
42332;SDS011;27984;51.476;5.702;2023-11-21T11:58:48;55.38;;;28.90;;
42332;SDS011;27984;51.476;5.702;2023-11-21T12:01:16;55.97;;;27.83;;
42332;SDS011;27984;51.476;5.702;2023-11-21T12:03:42;52.33;;;26.90;;
42332;SDS011;27984;51.476;5.702;2023-11-21T12:06:08;55.70;;;26.90;;
42332;SDS011;27984;51.476;5.702;2023-11-21T12:08:36;45.00;;;24.45;;
42332;SDS011;27984;51.476;5.702;2023-11-21T12:11:03;42.22;;;24.52;;
42332;SDS011;27984;51.476;5.702;2023-11-21T12:13:30;39.90;;;23.33;;
42332;SDS011;27984;51.476;5.702;2023-11-21T12:15:56;40.80;;;22.58;;
42332;SDS011;27984;51.476;5.702;2023-11-21T12:18:22;43.20;;;23.48;;
42332;SDS011;27984;51.476;5.702;2023-11-21T12:20:51;43.53;;;23.58;;
42332;SDS011;27984;51.476;5.702;2023-11-21T12:23:17;41.75;;;23.63;;
42332;SDS011;27984;51.476;5.702;2023-11-21T12:25:43;41.83;;;24.00;;
42332;SDS011;27984;51.476;5.702;2023-11-21T12:28:09;45.47;;;24.27;;
42332;SDS011;27984;51.476;5.702;2023-11-21T12:30:38;43.90;;;23.55;;
42332;SDS011;27984;51.476;5.702;2023-11-21T12:33:04;39.17;;;22.38;;
42332;SDS011;27984;51.476;5.702;2023-11-21T12:35:34;41.65;;;23.38;;
42332;SDS011;27984;51.476;5.702;2023-11-21T12:38:00;44.65;;;24.20;;
42332;SDS011;27984;51.476;5.702;2023-11-21T12:40:30;43.65;;;24.63;;
42332;SDS011;27984;51.476;5.702;2023-11-21T12:42:57;41.78;;;23.95;;
42332;SDS011;27984;51.476;5.702;2023-11-21T12:45:24;42.55;;;24.55;;
42332;SDS011;27984;51.476;5.702;2023-11-21T12:47:51;45.33;;;24.17;;
42332;SDS011;27984;51.476;5.702;2023-11-21T12:50:21;49.72;;;25.20;;
42332;SDS011;27984;51.476;5.702;2023-11-21T12:52:49;44.55;;;25.58;;
42332;SDS011;27984;51.476;5.702;2023-11-21T12:55:24;48.47;;;26.90;;
42332;SDS011;27984;51.476;5.702;2023-11-21T13:00:18;47.53;;;25.73;;
42332;SDS011;27984;51.476;5.702;2023-11-21T13:02:54;49.45;;;26.40;;
42332;SDS011;27984;51.476;5.702;2023-11-21T13:05:33;49.30;;;27.90;;
42332;SDS011;27984;51.476;5.702;2023-11-21T13:08:03;52.42;;;27.63;;
42332;SDS011;27984;51.476;5.702;2023-11-21T13:10:32;54.63;;;27.55;;
42332;SDS011;27984;51.476;5.702;2023-11-21T13:13:01;43.88;;;25.52;;
42332;SDS011;27984;51.476;5.702;2023-11-21T13:15:30;43.72;;;25.10;;
42332;SDS011;27984;51.476;5.702;2023-11-21T13:17:57;39.70;;;23.65;;
42332;SDS011;27984;51.476;5.702;2023-11-21T13:20:24;39.33;;;24.55;;
42332;SDS011;27984;51.476;5.702;2023-11-21T13:22:51;41.88;;;25.25;;
42332;SDS011;27984;51.476;5.702;2023-11-21T13:25:27;45.88;;;25.35;;
42332;SDS011;27984;51.476;5.702;2023-11-21T13:27:54;39.47;;;24.40;;
42332;SDS011;27984;51.476;5.702;2023-11-21T13:30:20;43.85;;;24.77;;
42332;SDS011;27984;51.476;5.702;2023-11-21T13:32:58;41.97;;;24.33;;
42332;SDS011;27984;51.476;5.702;2023-11-21T13:35:30;38.97;;;23.40;;
42332;SDS011;27984;51.476;5.702;2023-11-21T13:38:13;41.33;;;24.42;;
42332;SDS011;27984;51.476;5.702;2023-11-21T13:40:41;40.50;;;24.05;;
42332;SDS011;27984;51.476;5.702;2023-11-21T13:43:17;45.42;;;23.92;;
42332;SDS011;27984;51.476;5.702;2023-11-21T13:45:43;47.08;;;25.98;;
42332;SDS011;27984;51.476;5.702;2023-11-21T13:48:11;49.35;;;26.67;;
42332;SDS011;27984;51.476;5.702;2023-11-21T13:50:39;51.47;;;27.98;;
42332;SDS011;27984;51.476;5.702;2023-11-21T13:53:13;52.28;;;27.67;;
42332;SDS011;27984;51.476;5.702;2023-11-21T13:55:51;56.60;;;27.50;;
42332;SDS011;27984;51.476;5.702;2023-11-21T13:58:22;52.35;;;27.20;;
42332;SDS011;27984;51.476;5.702;2023-11-21T14:00:57;56.03;;;28.45;;
42332;SDS011;27984;51.476;5.702;2023-11-21T14:03:24;60.70;;;28.60;;
42332;SDS011;27984;51.476;5.702;2023-11-21T14:06:02;54.40;;;28.20;;
42332;SDS011;27984;51.476;5.702;2023-11-21T14:08:33;57.63;;;28.45;;
42332;SDS011;27984;51.476;5.702;2023-11-21T14:10:59;51.30;;;27.15;;
42332;SDS011;27984;51.476;5.702;2023-11-21T14:13:26;52.20;;;27.70;;
42332;SDS011;27984;51.476;5.702;2023-11-21T14:15:52;53.38;;;27.30;;
42332;SDS011;27984;51.476;5.702;2023-11-21T14:18:26;45.45;;;25.40;;
42332;SDS011;27984;51.476;5.702;2023-11-21T14:20:56;50.00;;;26.58;;
42332;SDS011;27984;51.476;5.702;2023-11-21T14:23:22;44.53;;;24.77;;
42332;SDS011;27984;51.476;5.702;2023-11-21T14:25:48;47.05;;;24.83;;
42332;SDS011;27984;51.476;5.702;2023-11-21T14:28:16;42.78;;;24.70;;
42332;SDS011;27984;51.476;5.702;2023-11-21T14:30:42;40.85;;;23.38;;
42332;SDS011;27984;51.476;5.702;2023-11-21T14:33:08;43.80;;;23.55;;